Time;durP1;ratioP1;P1;durP2;ratioP2;P2;SDS_P1;SDS_P2;PMS_P1;PMS_P2;Temp;Humidity;BMP_temperature;BMP_pressure;BME280_temperature;BME280_humidity;BME280_pressure;Samples;Min_cycle;Max_cycle;Signal;HPM_P1;HPM_P2
2023/05/11 00:02:12;;;;;;;12.45;11.20;;;;;;;12.36;100.00;101425.84;5089842;28;20477;-36
2023/05/11 00:04:38;;;;;;;10.88;9.80;;;;;;;12.39;100.00;101422.66;5090268;28;20070;-36
2023/05/11 00:07:03;;;;;;;14.73;12.65;;;;;;;12.38;100.00;101412.88;5090599;28;20024;-36
2023/05/11 00:09:29;;;;;;;13.77;12.32;;;;;;;12.29;100.00;101397.97;5090293;28;20035;-36
2023/05/11 00:11:54;;;;;;;14.05;12.50;;;;;;;12.32;100.00;101409.19;5082716;28;20347;-36
2023/05/11 00:14:20;;;;;;;15.05;13.30;;;;;;;12.37;100.00;101406.63;5076903;28;20028;-36
2023/05/11 00:16:45;;;;;;;13.77;12.37;;;;;;;12.38;100.00;101408.28;5076369;28;20020;-36
2023/05/11 00:19:10;;;;;;;15.05;13.55;;;;;;;12.38;100.00;101408.28;5076179;28;20298;-36
2023/05/11 00:21:36;;;;;;;13.45;12.07;;;;;;;12.28;100.00;101391.72;5077101;28;20115;-36
2023/05/11 00:24:01;;;;;;;15.75;13.63;;;;;;;12.22;100.00;101389.94;5076176;28;20020;-36
2023/05/11 00:26:26;;;;;;;16.57;14.07;;;;;;;12.24;100.00;101400.53;5076961;28;20031;-36
2023/05/11 00:28:52;;;;;;;13.47;12.00;;;;;;;12.20;100.00;101399.34;5075879;28;20271;-36
2023/05/11 00:31:17;;;;;;;14.45;13.00;;;;;;;12.20;100.00;101400.19;5076325;28;20254;-36
2023/05/11 00:33:43;;;;;;;14.43;13.02;;;;;;;12.14;100.00;101403.78;5076313;28;20032;-36
2023/05/11 00:36:08;;;;;;;15.48;13.88;;;;;;;12.05;100.00;101399.72;5076051;28;20093;-36
2023/05/11 00:38:35;;;;;;;15.80;13.18;;;;;;;12.09;100.00;101404.47;5076229;28;20024;-36
2023/05/11 00:41:01;;;;;;;13.02;11.73;;;;;;;12.05;100.00;101411.44;5075545;28;20540;-36
2023/05/11 00:43:27;;;;;;;11.30;10.20;;;;;;;12.07;100.00;101412.03;5075779;28;20054;-36
2023/05/11 00:45:52;;;;;;;10.52;9.48;;;;;;;12.10;100.00;101414.28;5076107;28;20108;-36
2023/05/11 00:48:18;;;;;;;13.00;11.32;;;;;;;12.07;100.00;101411.19;5076098;28;20353;-36
2023/05/11 00:50:44;;;;;;;12.27;11.02;;;;;;;12.07;100.00;101419.34;5075738;28;20033;-36
2023/05/11 00:53:10;;;;;;;15.20;13.60;;;;;;;12.04;100.00;101407.03;5075642;28;20025;-36
2023/05/11 00:55:36;;;;;;;17.05;14.38;;;;;;;12.03;100.00;101408.09;5075364;28;20078;-36
2023/05/11 00:58:04;;;;;;;14.45;12.88;;;;;;;12.06;100.00;101413.09;5075629;28;20024;-36
2023/05/11 01:00:29;;;;;;;11.30;8.82;;;;;;;12.12;100.00;101419.47;5075772;28;20453;-36
2023/05/11 01:02:55;;;;;;;13.93;12.52;;;;;;;12.13;100.00;101414.88;5075460;28;20028;-36
2023/05/11 01:05:20;;;;;;;14.63;12.98;;;;;;;12.13;100.00;101421.13;5076089;28;20024;-36
2023/05/11 01:07:58;;;;;;;13.80;12.38;;;;;;;12.16;100.00;101420.69;5075667;28;20048;-36
2023/05/11 01:10:47;;;;;;;14.18;12.77;;;;;;;12.14;100.00;101427.38;5075910;28;20090;-36
2023/05/11 01:13:29;;;;;;;17.15;13.07;;;;;;;12.06;100.00;101401.41;5075620;28;20025;-36
2023/05/11 01:15:55;;;;;;;14.30;12.88;;;;;;;12.14;100.00;101422.78;5074946;28;20024;-36
2023/05/11 01:18:45;;;;;;;13.73;12.32;;;;;;;12.19;100.00;101424.81;5075465;28;20029;-36
2023/05/11 01:21:14;;;;;;;15.63;12.90;;;;;;;12.17;100.00;101425.03;5075373;28;20025;-36
2023/05/11 01:24:07;;;;;;;14.60;13.02;;;;;;;12.10;100.00;101417.00;5074328;28;20112;-36
2023/05/11 01:26:48;;;;;;;15.15;13.63;;;;;;;12.07;100.00;101409.31;5075392;28;20508;-36
2023/05/11 01:29:39;;;;;;;16.30;14.32;;;;;;;12.11;100.00;101423.25;5074933;28;20083;-36
2023/05/11 01:32:13;;;;;;;15.48;13.27;;;;;;;12.13;100.00;101423.00;5074918;28;20020;-36
2023/05/11 01:34:41;;;;;;;15.40;13.82;;;;;;;12.03;100.00;101418.94;5075437;28;20025;-36
2023/05/11 01:37:20;;;;;;;17.52;14.73;;;;;;;12.10;100.00;101433.28;5075311;28;20040;-36
2023/05/11 01:39:53;;;;;;;17.95;15.32;;;;;;;12.13;100.00;101433.84;5074987;28;20145;-36
2023/05/11 01:42:31;;;;;;;16.80;15.02;;;;;;;12.08;100.00;101429.13;5075276;28;20017;-36
2023/05/11 01:44:58;;;;;;;16.00;14.43;;;;;;;12.13;100.00;101420.31;5074905;28;20062;-36
2023/05/11 01:47:27;;;;;;;15.95;12.98;;;;;;;12.12;100.00;101427.59;5074882;28;20080;-36
2023/05/11 01:49:53;;;;;;;15.88;14.25;;;;;;;12.11;100.00;101434.91;5074493;28;20020;-36
2023/05/11 01:52:22;;;;;;;18.35;15.23;;;;;;;12.13;100.00;101431.16;5074834;28;20020;-36
2023/05/11 01:54:51;;;;;;;14.68;13.15;;;;;;;12.18;100.00;101434.81;5074208;28;20020;-36
2023/05/11 01:57:17;;;;;;;16.63;14.57;;;;;;;12.18;100.00;101436.72;5074685;28;20024;-36
2023/05/11 01:59:43;;;;;;;16.42;14.73;;;;;;;12.19;100.00;101441.06;5074622;28;20479;-36
2023/05/11 02:02:11;;;;;;;17.20;15.13;;;;;;;12.09;100.00;101419.91;5074091;28;20033;-36
2023/05/11 02:04:38;;;;;;;16.52;14.88;;;;;;;12.12;100.00;101427.59;5074228;28;20024;-36
2023/05/11 02:07:06;;;;;;;15.68;14.05;;;;;;;12.09;100.00;101422.63;5074201;28;20101;-36
2023/05/11 02:09:34;;;;;;;16.33;14.63;;;;;;;12.12;100.00;101430.31;5073836;28;20456;-36
2023/05/11 02:12:02;;;;;;;18.23;13.98;;;;;;;12.12;100.00;101438.44;5074414;28;20027;-36
2023/05/11 02:14:32;;;;;;;16.92;15.13;;;;;;;12.11;100.00;101439.50;5074098;28;20026;-36
2023/05/11 02:17:00;;;;;;;19.20;15.18;;;;;;;12.07;100.00;101432.88;5074079;28;20052;-36
2023/05/11 02:19:28;;;;;;;16.77;15.02;;;;;;;12.08;100.00;101434.53;5073976;28;20043;-36
2023/05/11 02:21:54;;;;;;;17.17;14.07;;;;;;;12.03;100.00;101437.91;5073994;28;20037;-36
2023/05/11 02:24:20;;;;;;;;;;;;;;;12.13;100.00;101437.41;5074124;28;20024;-36
2023/05/11 02:26:45;;;;;;;16.58;13.60;;;;;;;12.01;100.00;101425.66;5074159;28;19911;-36
2023/05/11 02:29:11;;;;;;;16.25;14.52;;;;;;;12.00;100.00;101422.09;5073806;28;20437;-36
2023/05/11 02:31:45;;;;;;;14.45;12.95;;;;;;;11.99;100.00;101428.59;5074436;28;20029;-36
2023/05/11 02:34:22;;;;;;;17.15;15.05;;;;;;;11.84;100.00;101403.75;5074460;28;20357;-36
2023/05/11 02:36:50;;;;;;;16.63;14.77;;;;;;;11.89;100.00;101420.16;5074600;28;20021;-36
2023/05/11 02:39:20;;;;;;;15.57;13.93;;;;;;;11.84;100.00;101409.16;5073893;28;20035;-36
2023/05/11 02:41:53;;;;;;;16.00;14.35;;;;;;;11.83;100.00;101419.19;5073450;28;20035;-36
2023/05/11 02:44:20;;;;;;;15.93;14.32;;;;;;;11.88;100.00;101420.38;5072791;28;20052;-36
2023/05/11 02:46:48;;;;;;;16.73;14.95;;;;;;;11.79;100.00;101414.41;5073662;28;20020;-36
2023/05/11 02:49:17;;;;;;;12.18;10.80;;;;;;;11.80;100.00;101416.88;5073328;28;20476;-36
2023/05/11 02:51:44;;;;;;;15.85;13.52;;;;;;;11.75;100.00;101418.59;5073655;28;20024;-36
2023/05/11 02:54:11;;;;;;;16.58;14.85;;;;;;;11.69;100.00;101414.91;5074103;28;20024;-36
2023/05/11 02:56:38;;;;;;;17.05;14.38;;;;;;;11.69;100.00;101416.81;5073530;28;20452;-36
2023/05/11 02:59:03;;;;;;;;;;;;;;;11.81;100.00;101423.16;5073672;28;20361;-36
2023/05/11 03:01:29;;;;;;;15.75;14.15;;;;;;;11.59;100.00;101417.31;5074321;28;19958;-36
2023/05/11 03:03:55;;;;;;;15.38;13.68;;;;;;;11.58;100.00;101424.63;5073537;28;20368;-36
2023/05/11 03:06:20;;;;;;;;;;;;;;;11.68;100.00;101424.09;5074530;28;20027;-36
2023/05/11 03:08:46;;;;;;;16.27;13.82;;;;;;;11.51;100.00;101429.25;5073199;28;20364;-36
2023/05/11 03:11:13;;;;;;;15.25;13.23;;;;;;;11.52;100.00;101430.09;5073207;28;20528;-36
2023/05/11 03:13:40;;;;;;;15.68;12.60;;;;;;;11.45;100.00;101419.31;5073062;28;20028;-36
2023/05/11 03:16:06;;;;;;;14.25;12.75;;;;;;;11.43;100.00;101420.59;5073071;28;20031;-36
2023/05/11 03:18:33;;;;;;;12.98;11.68;;;;;;;11.34;100.00;101414.63;5073375;28;20025;-36
2023/05/11 03:21:00;;;;;;;13.98;12.55;;;;;;;11.33;100.00;101432.78;5074159;28;20357;-36
2023/05/11 03:23:26;;;;;;;17.02;14.38;;;;;;;11.29;100.00;101426.13;5072973;28;20522;-36
2023/05/11 03:25:53;;;;;;;14.32;11.80;;;;;;;11.31;100.00;101428.59;5073322;28;20025;-36
2023/05/11 03:28:21;;;;;;;15.48;13.88;;;;;;;11.15;100.00;101408.34;5073213;28;20023;-36
2023/05/11 03:30:48;;;;;;;15.68;13.40;;;;;;;11.25;100.00;101429.50;5073513;28;20127;-36
2023/05/11 03:33:14;;;;;;;16.02;13.35;;;;;;;11.22;100.00;101427.22;5074033;28;20107;-36
2023/05/11 03:35:41;;;;;;;15.97;13.40;;;;;;;11.17;100.00;101429.78;5073834;28;20060;-36
2023/05/11 03:38:10;;;;;;;15.65;14.15;;;;;;;11.19;100.00;101428.50;5073171;28;20407;-36
2023/05/11 03:40:38;;;;;;;15.93;14.18;;;;;;;11.20;100.00;101434.75;5073076;28;20029;-36
2023/05/11 03:43:06;;;;;;;13.38;11.95;;;;;;;11.27;100.00;101432.81;5073173;28;20025;-36
2023/05/11 03:45:32;;;;;;;17.48;13.38;;;;;;;11.27;100.00;101433.66;5072861;28;20046;-36
2023/05/11 03:47:58;;;;;;;;;;;;;;;11.41;100.00;101430.81;5076900;28;20024;-36
2023/05/11 03:50:24;;;;;;;14.00;12.52;;;;;;;11.34;100.00;101433.59;5077411;28;19908;-36
2023/05/11 03:52:51;;;;;;;19.15;14.25;;;;;;;11.25;100.00;101421.38;5077027;28;20056;-36
2023/05/11 03:55:16;;;;;;;20.67;14.65;;;;;;;11.32;100.00;101424.84;5077605;28;20024;-36
2023/05/11 03:57:42;;;;;;;15.73;14.10;;;;;;;11.31;100.00;101417.78;5076936;28;20433;-36
2023/05/11 04:00:09;;;;;;;16.95;15.15;;;;;;;11.30;100.00;101427.78;5076687;28;20044;-36
2023/05/11 04:02:35;;;;;;;15.90;13.15;;;;;;;11.32;100.00;101425.69;5076528;28;20074;-36
2023/05/11 04:05:08;;;;;;;15.73;14.13;;;;;;;11.35;100.00;101429.81;5076560;28;20372;-36
2023/05/11 04:07:35;;;;;;;16.30;14.45;;;;;;;11.36;100.00;101428.78;5076789;28;20027;-36
2023/05/11 04:10:01;;;;;;;14.07;12.60;;;;;;;11.45;100.00;101438.28;5077032;28;20029;-36
2023/05/11 04:12:27;;;;;;;;;;;;;;;11.53;100.00;101432.59;5076533;28;20020;-36
2023/05/11 04:14:52;;;;;;;14.93;12.55;;;;;;;11.46;100.00;101434.50;5076107;28;19912;-36
2023/05/11 04:17:17;;;;;;;18.13;15.20;;;;;;;11.46;100.00;101437.22;5076385;28;20028;-36
2023/05/11 04:19:43;;;;;;;16.17;14.10;;;;;;;11.50;100.00;101438.44;5076175;28;20017;-36
2023/05/11 04:22:10;;;;;;;19.17;15.93;;;;;;;11.48;100.00;101435.13;5076096;28;20251;-36
2023/05/11 04:24:35;;;;;;;20.15;16.60;;;;;;;11.48;100.00;101435.13;5076152;28;20294;-36
2023/05/11 04:27:01;;;;;;;19.13;15.23;;;;;;;11.51;100.00;101439.25;5077084;28;20048;-36
2023/05/11 04:29:26;;;;;;;21.17;16.37;;;;;;;11.54;100.00;101438.81;5076131;28;20025;-36
2023/05/11 04:31:51;;;;;;;16.27;14.57;;;;;;;11.53;100.00;101440.72;5075805;28;20254;-36
2023/05/11 04:34:16;;;;;;;18.43;15.60;;;;;;;11.55;100.00;101440.47;5074826;28;20025;-36
2023/05/11 04:36:42;;;;;;;23.00;15.87;;;;;;;11.53;100.00;101439.88;5076047;28;20266;-36
2023/05/11 04:39:07;;;;;;;18.30;16.38;;;;;;;11.52;100.00;101439.06;5075960;28;20551;-36
2023/05/11 04:41:32;;;;;;;22.17;17.07;;;;;;;11.57;100.00;101441.09;5076169;28;20360;-36
2023/05/11 04:43:58;;;;;;;20.63;16.47;;;;;;;11.57;100.00;101436.50;5075653;28;20403;-36
2023/05/11 04:46:23;;;;;;;21.33;17.15;;;;;;;11.57;100.00;101436.50;5076159;28;20707;-36
2023/05/11 04:48:49;;;;;;;20.20;17.87;;;;;;;11.59;100.00;101439.81;5076082;28;20081;-36
2023/05/11 04:51:14;;;;;;;17.80;15.88;;;;;;;11.65;100.00;101437.25;5075724;28;20025;-36
2023/05/11 04:53:40;;;;;;;20.97;16.73;;;;;;;11.71;100.00;101441.78;5076547;28;20028;-36
2023/05/11 04:56:05;;;;;;;20.27;18.15;;;;;;;11.64;100.00;101427.47;5075870;28;20297;-38
2023/05/11 04:58:31;;;;;;;19.52;17.38;;;;;;;11.69;100.00;101422.22;5075431;28;20348;-36
2023/05/11 05:00:56;;;;;;;21.47;18.30;;;;;;;11.72;100.00;101435.31;5076159;28;20105;-36
2023/05/11 05:03:21;;;;;;;19.15;17.13;;;;;;;11.81;100.00;101442.94;5075258;28;20104;-36
2023/05/11 05:05:47;;;;;;;21.87;17.27;;;;;;;11.86;100.00;101450.44;5075503;28;20052;-36
2023/05/11 05:08:13;;;;;;;24.80;20.57;;;;;;;11.88;100.00;101461.88;5075129;28;20751;-36
2023/05/11 05:10:38;;;;;;;24.70;19.83;;;;;;;11.91;100.00;101455.16;5075959;28;20028;-36
2023/05/11 05:13:03;;;;;;;27.57;21.37;;;;;;;11.92;100.00;101451.41;5074987;28;20522;-36
2023/05/11 05:15:29;;;;;;;26.60;20.27;;;;;;;11.90;100.00;101446.19;5075539;28;20334;-36
2023/05/11 05:17:54;;;;;;;30.25;22.52;;;;;;;11.87;100.00;101449.38;5075173;28;20598;-36
2023/05/11 05:20:19;;;;;;;29.10;21.47;;;;;;;11.92;100.00;101462.25;5075688;28;20062;-36
2023/05/11 05:22:45;;;;;;;27.20;22.47;;;;;;;11.89;100.00;101458.09;5075174;28;20305;-38
2023/05/11 05:25:11;;;;;;;25.97;22.40;;;;;;;11.93;100.00;101462.00;5075363;28;20255;-36
2023/05/11 05:27:36;;;;;;;30.08;22.08;;;;;;;11.98;100.00;101462.16;5075494;28;20259;-36
2023/05/11 05:30:01;;;;;;;26.10;20.63;;;;;;;11.98;100.00;101467.59;5075849;28;20123;-36
2023/05/11 05:32:27;;;;;;;23.98;20.40;;;;;;;11.99;100.00;101480.09;5075235;28;20028;-36
2023/05/11 05:34:53;;;;;;;23.70;20.15;;;;;;;12.03;100.00;101477.75;5074580;28;20107;-36
2023/05/11 05:37:18;;;;;;;23.58;20.08;;;;;;;11.94;100.00;101460.97;5074934;28;20127;-36
2023/05/11 05:39:43;;;;;;;22.73;20.20;;;;;;;11.95;100.00;101456.38;5074982;28;20494;-36
2023/05/11 05:42:09;;;;;;;23.10;19.63;;;;;;;12.08;100.00;101478.72;5074531;28;20594;-36
2023/05/11 05:44:34;;;;;;;20.48;17.20;;;;;;;12.15;100.00;101472.41;5074891;28;20250;-36
2023/05/11 05:47:00;;;;;;;26.15;21.30;;;;;;;12.04;100.00;101463.97;5074957;28;20021;-36
2023/05/11 05:49:25;;;;;;;23.27;20.53;;;;;;;12.18;100.00;101480.09;5074611;28;20368;-36
2023/05/11 05:51:51;;;;;;;29.00;22.60;;;;;;;12.15;100.00;101484.09;5075142;28;20021;-36
2023/05/11 05:54:16;;;;;;;28.38;23.40;;;;;;;12.21;100.00;101493.22;5074749;28;20025;-37
2023/05/11 05:56:42;;;;;;;28.73;22.77;;;;;;;12.13;100.00;101490.78;5074523;28;20398;-37
2023/05/11 05:59:09;;;;;;;31.38;23.98;;;;;;;12.14;100.00;101489.72;5074647;28;20072;-37
2023/05/11 06:01:35;;;;;;;28.83;24.48;;;;;;;12.21;100.00;101502.16;5074768;28;20080;-37
2023/05/11 06:04:01;;;;;;;29.13;24.88;;;;;;;12.20;100.00;101495.09;5074285;28;20063;-37
2023/05/11 06:06:26;;;;;;;32.58;25.48;;;;;;;12.23;100.00;101497.34;5074881;28;20441;-37
2023/05/11 06:08:52;;;;;;;36.77;26.60;;;;;;;12.26;100.00;101496.06;5073794;28;20021;-37
2023/05/11 06:11:17;;;;;;;28.83;23.60;;;;;;;12.33;100.00;101499.53;5074109;28;20265;-37
2023/05/11 06:13:42;;;;;;;37.58;27.45;;;;;;;12.30;100.00;101503.53;5074064;28;20107;-37
2023/05/11 06:16:08;;;;;;;34.72;27.02;;;;;;;12.34;100.00;101498.47;5074122;28;20029;-37
2023/05/11 06:18:33;;;;;;;31.60;24.20;;;;;;;12.38;100.00;101505.09;5074274;28;20081;-37
2023/05/11 06:20:58;;;;;;;39.73;28.33;;;;;;;12.39;100.00;101504.03;5073948;28;20266;-37
2023/05/11 06:23:24;;;;;;;45.03;28.13;;;;;;;12.43;100.00;101507.13;5073925;28;20290;-37
2023/05/11 06:25:49;;;;;;;42.65;31.50;;;;;;;12.46;100.00;101503.97;5074410;28;20060;-37
2023/05/11 06:28:15;;;;;;;38.78;31.60;;;;;;;12.46;100.00;101502.09;5073879;28;20028;-37
2023/05/11 06:30:40;;;;;;;42.75;31.15;;;;;;;12.47;100.00;101508.34;5073736;28;20028;-37
2023/05/11 06:33:05;;;;;;;44.07;31.50;;;;;;;12.50;100.00;101500.56;5074360;28;20028;-37
2023/05/11 06:35:31;;;;;;;44.70;31.37;;;;;;;12.57;100.00;101506.72;5073796;28;20247;-37
2023/05/11 06:37:56;;;;;;;41.73;30.87;;;;;;;12.63;100.00;101505.81;5073824;28;20259;-37
2023/05/11 06:40:21;;;;;;;44.50;32.58;;;;;;;12.65;100.00;101493.94;5074279;28;20150;-37
2023/05/11 06:42:47;;;;;;;47.25;33.40;;;;;;;12.72;100.00;101506.34;5073723;28;20399;-37
2023/05/11 06:45:12;;;;;;;45.78;34.60;;;;;;;12.76;100.00;101510.25;5073459;28;20442;-37
2023/05/11 06:47:38;;;;;;;42.97;33.40;;;;;;;12.81;100.00;101512.28;5073972;28;20028;-37
2023/05/11 06:50:03;;;;;;;;;;;;;;;12.84;100.00;101514.53;5074981;28;20029;-37
2023/05/11 06:52:28;;;;;;;47.88;34.05;;;;;;;12.79;100.00;101511.69;5073646;28;19957;-37
2023/05/11 06:54:55;;;;;;;46.57;33.93;;;;;;;12.79;100.00;101501.66;5073429;28;20032;-37
2023/05/11 06:57:20;;;;;;;;;;;;;;;12.97;100.00;101518.94;5074128;28;20350;-37
2023/05/11 06:59:45;;;;;;;46.03;33.63;;;;;;;12.93;100.00;101515.84;5073267;28;20006;-37
2023/05/11 07:02:10;;;;;;;;;;;;;;;13.06;100.00;101521.09;5074270;28;20095;-37
2023/05/11 07:04:36;;;;;;;47.03;34.47;;;;;;;13.05;100.00;101521.34;5073818;28;19915;-37
2023/05/11 07:07:02;;;;;;;49.03;34.83;;;;;;;12.98;100.00;101510.59;5073812;28;20731;-37
2023/05/11 07:09:27;;;;;;;48.45;35.72;;;;;;;13.00;100.00;101518.50;5072499;28;20303;-37
2023/05/11 07:11:53;;;;;;;50.63;35.60;;;;;;;13.07;100.00;101521.94;5073449;28;20159;-37
2023/05/11 07:14:18;;;;;;;44.37;34.97;;;;;;;13.01;100.00;101515.53;5073744;28;20032;-37
2023/05/11 07:16:45;;;;;;;45.65;35.25;;;;;;;13.00;100.00;101519.31;5073479;28;20259;-37
2023/05/11 07:19:10;;;;;;;45.63;33.20;;;;;;;13.06;100.00;101529.25;5073318;28;20021;-37
2023/05/11 07:21:36;;;;;;;45.85;32.90;;;;;;;13.08;100.00;101527.16;5074616;28;20029;-37
2023/05/11 07:24:02;;;;;;;44.08;33.42;;;;;;;13.08;100.00;101531.75;5077400;28;20034;-37
2023/05/11 07:26:27;;;;;;;45.05;33.70;;;;;;;13.08;100.00;101516.28;5078460;28;20020;-37
2023/05/11 07:28:52;;;;;;;45.45;34.00;;;;;;;13.06;100.00;101529.25;5077274;28;20094;-37
2023/05/11 07:31:18;;;;;;;42.03;32.38;;;;;;;13.07;100.00;101520.03;5077568;28;20094;-37
2023/05/11 07:33:43;;;;;;;41.50;33.03;;;;;;;13.09;100.00;101523.38;5077209;28;20039;-37
2023/05/11 07:36:08;;;;;;;45.07;35.67;;;;;;;13.04;100.00;101536.00;5077506;28;20283;-37
2023/05/11 07:38:35;;;;;;;46.33;34.50;;;;;;;13.02;100.00;101538.09;5077102;28;20271;-37
2023/05/11 07:41:00;;;;;;;46.67;34.72;;;;;;;12.95;100.00;101527.31;5077812;28;20020;-37
2023/05/11 07:43:25;;;;;;;41.92;32.38;;;;;;;12.95;100.00;101532.75;5076765;28;20035;-37
2023/05/11 07:45:51;;;;;;;43.13;32.22;;;;;;;12.94;100.00;101533.81;5077087;28;20031;-37
2023/05/11 07:48:16;;;;;;;43.45;32.70;;;;;;;12.89;100.00;101533.69;5077156;28;20029;-37
2023/05/11 07:50:43;;;;;;;43.17;32.47;;;;;;;12.84;100.00;101526.22;5077164;28;20521;-35
2023/05/11 07:53:08;;;;;;;38.20;31.27;;;;;;;12.90;100.00;101538.03;5076997;28;20025;-35
2023/05/11 07:55:34;;;;;;;40.95;31.58;;;;;;;12.90;100.00;101538.03;5077363;28;20342;-36
2023/05/11 07:57:59;;;;;;;39.70;31.60;;;;;;;12.85;100.00;101537.91;5076717;28;20036;-36
2023/05/11 08:00:25;;;;;;;40.63;31.25;;;;;;;12.87;100.00;101530.34;5077088;28;20076;-36
2023/05/11 08:02:51;;;;;;;;;;;;;;;13.00;100.00;101535.59;5077346;28;20554;-36
2023/05/11 08:05:18;;;;;;;39.03;29.85;;;;;;;12.88;100.00;101543.72;5076873;28;20023;-36
2023/05/11 08:07:43;;;;;;;36.78;29.83;;;;;;;12.87;100.00;101542.03;5077025;28;20372;-36
2023/05/11 08:10:10;;;;;;;36.70;29.05;;;;;;;12.89;100.00;101550.78;5076875;28;20028;-36
2023/05/11 08:12:35;;;;;;;39.60;29.38;;;;;;;12.91;100.00;101547.03;5076689;28;20016;-36
2023/05/11 08:15:01;;;;;;;36.97;29.38;;;;;;;12.87;100.00;101547.47;5076160;28;20028;-36
2023/05/11 08:17:27;;;;;;;40.17;30.50;;;;;;;12.87;100.00;101542.03;5076405;28;20078;-36
2023/05/11 08:19:53;;;;;;;34.65;28.63;;;;;;;12.95;100.00;101554.47;5076840;28;20024;-36
2023/05/11 08:22:18;;;;;;;33.38;28.60;;;;;;;12.94;100.00;101552.81;5076315;28;20020;-36
2023/05/11 08:24:43;;;;;;;34.67;28.50;;;;;;;12.99;100.00;101549.44;5076360;28;20069;-36
2023/05/11 08:27:09;;;;;;;34.50;29.40;;;;;;;13.04;100.00;101553.09;5077091;28;20690;-36
2023/05/11 08:29:34;;;;;;;33.70;26.77;;;;;;;13.07;100.00;101551.78;5075905;28;20107;-45
2023/05/11 08:31:59;;;;;;;38.20;28.13;;;;;;;13.04;100.00;101539.53;5075904;28;20078;-36
2023/05/11 08:34:25;;;;;;;32.00;26.92;;;;;;;13.14;100.00;101542.50;5075790;28;20031;-36
2023/05/11 08:36:52;;;;;;;28.35;24.45;;;;;;;13.17;100.00;101545.81;5076071;28;20028;-36
2023/05/11 08:39:17;;;;;;;30.10;24.38;;;;;;;13.15;100.00;101537.91;5075870;28;20016;-36
2023/05/11 08:41:44;;;;;;;34.55;24.08;;;;;;;13.13;100.00;101546.28;5076524;28;20078;-36
2023/05/11 08:44:09;;;;;;;35.22;24.98;;;;;;;13.19;100.00;101547.25;5075763;28;20476;-36
2023/05/11 08:46:40;;;;;;;29.40;24.17;;;;;;;13.24;100.00;101554.75;5076014;28;20024;-36
2023/05/11 08:49:07;;;;;;;28.52;23.92;;;;;;;13.17;100.00;101546.63;5076512;28;20392;-36
2023/05/11 08:51:32;;;;;;;28.52;22.83;;;;;;;13.21;100.00;101552.44;5075655;28;20029;-36
2023/05/11 08:53:58;;;;;;;27.03;21.90;;;;;;;13.22;100.00;101543.25;5075512;28;20031;-36
2023/05/11 08:56:25;;;;;;;27.13;22.52;;;;;;;13.25;100.00;101546.34;5075781;28;20828;-37
2023/05/11 08:58:54;;;;;;;30.25;22.02;;;;;;;13.26;100.00;101544.47;5075740;28;20096;-36
2023/05/11 09:01:22;;;;;;;25.73;20.95;;;;;;;13.33;100.00;101547.91;5075174;28;20087;-36
2023/05/11 09:03:48;;;;;;;26.27;21.20;;;;;;;13.36;100.00;101550.16;5075416;28;20077;-36
2023/05/11 09:06:16;;;;;;;29.48;21.50;;;;;;;13.41;100.00;101553.00;5075307;28;20021;-36
2023/05/11 09:08:43;;;;;;;27.60;21.95;;;;;;;13.38;100.00;101545.34;5075030;28;20021;-36
2023/05/11 09:11:09;;;;;;;26.25;21.13;;;;;;;13.48;100.00;101561.06;5075674;28;20182;-36
2023/05/11 09:13:35;;;;;;;29.13;22.65;;;;;;;13.50;100.00;101565.19;5075595;28;20468;-36
2023/05/11 09:16:01;;;;;;;30.60;22.27;;;;;;;13.54;100.00;101560.13;5075931;28;20025;-36
2023/05/11 09:18:27;;;;;;;30.02;22.90;;;;;;;13.57;100.00;101557.78;5074802;28;20025;-36
2023/05/11 09:20:53;;;;;;;35.42;26.30;;;;;;;13.56;100.00;101572.41;5075774;28;20155;-36
2023/05/11 09:23:23;;;;;;;;;;;;;;;13.69;100.00;101565.94;5075435;28;20019;-36
2023/05/11 09:25:48;;;;;;;36.25;26.65;;;;;;;13.57;100.00;101559.66;5075791;28;19943;-36
2023/05/11 09:28:15;;;;;;;37.75;28.48;;;;;;;13.59;100.00;101563.78;5074823;28;20048;-36
2023/05/11 09:30:41;;;;;;;39.03;28.75;;;;;;;13.65;100.00;101564.75;5075906;28;20418;-36
2023/05/11 09:33:07;;;;;;;37.22;29.23;;;;;;;13.77;100.00;101562.06;5074667;28;20025;-36
2023/05/11 09:35:33;;;;;;;38.78;29.40;;;;;;;13.85;100.00;101567.13;5075222;28;20035;-36
2023/05/11 09:38:10;;;;;;;40.72;29.75;;;;;;;13.94;100.00;101563.00;5074800;28;20364;-36
2023/05/11 09:40:51;;;;;;;38.83;28.35;;;;;;;14.04;100.00;101546.94;5074730;28;20023;-36
2023/05/11 09:43:34;;;;;;;36.40;26.77;;;;;;;14.26;100.00;101557.22;5074449;28;20086;-36
2023/05/11 09:46:03;;;;;;;38.22;27.70;;;;;;;14.33;100.00;101550.56;5074589;28;20119;-36
2023/05/11 09:48:31;;;;;;;37.10;27.30;;;;;;;14.32;100.00;101546.19;5074768;28;20025;-36
2023/05/11 09:51:04;;;;;;;38.45;28.30;;;;;;;14.39;100.00;101556.94;5075365;28;20437;-36
2023/05/11 09:53:48;;;;;;;37.05;27.35;;;;;;;14.47;100.00;101561.22;5074250;28;20064;-36
2023/05/11 09:56:14;;;;;;;33.03;26.40;;;;;;;14.45;100.00;101547.84;5075002;28;20450;-36
2023/05/11 09:59:06;;;;;;;33.25;25.27;;;;;;;14.64;100.00;101554.81;5074400;28;20029;-36
2023/05/11 10:01:32;;;;;;;32.13;24.92;;;;;;;14.66;100.00;101555.41;5073312;28;20037;-36
2023/05/11 10:04:00;;;;;;;32.80;25.73;;;;;;;14.71;100.00;101565.56;5074290;28;20020;-36
2023/05/11 10:06:25;;;;;;;33.85;24.67;;;;;;;14.81;100.00;101567.66;5074534;28;20020;-36
2023/05/11 10:08:51;;;;;;;33.80;25.15;;;;;;;14.85;100.00;101547.88;5074510;28;20028;-36
2023/05/11 10:11:21;;;;;;;32.45;23.92;;;;;;;14.89;100.00;101548.22;5074192;28;20024;-36
2023/05/11 10:13:47;;;;;;;37.03;28.08;;;;;;;15.05;100.00;101562.97;5074644;28;20020;-36
2023/05/11 10:16:15;;;;;;;41.05;27.92;;;;;;;15.13;100.00;101554.41;5073733;28;20020;-36
2023/05/11 10:18:42;;;;;;;39.30;28.67;;;;;;;15.07;100.00;101550.75;5073994;28;20028;-36
2023/05/11 10:21:10;;;;;;;36.15;28.42;;;;;;;15.14;100.00;101556.88;5074778;28;20357;-36
2023/05/11 10:23:36;;;;;;;36.63;27.60;;;;;;;15.25;100.00;101559.78;5074249;28;20032;-36
2023/05/11 10:26:03;;;;;;;38.85;28.58;;;;;;;15.31;100.00;101548.72;5074077;28;20024;-36
2023/05/11 10:28:29;;;;;;;36.97;27.95;;;;;;;15.38;100.00;101551.31;5073615;28;20031;-36
2023/05/11 10:30:55;;;;;;;36.00;26.80;;;;;;;15.28;100.00;101560.13;5073626;28;20036;-36
2023/05/11 10:33:22;;;;;;;33.70;26.33;;;;;;;15.20;100.00;101560.53;5073830;28;20108;-37
2023/05/11 10:35:49;;;;;;;35.80;26.70;;;;;;;15.14;100.00;101550.59;5074134;28;20036;-36
2023/05/11 10:38:15;;;;;;;37.92;28.17;;;;;;;15.11;100.00;101556.53;5073736;28;20484;-36
2023/05/11 10:40:44;;;;;;;36.88;28.48;;;;;;;15.05;100.00;101561.06;5073625;28;20033;-36
2023/05/11 10:43:19;;;;;;;39.05;28.70;;;;;;;15.06;100.00;101568.16;5073654;28;20024;-36
2023/05/11 10:46:36;;;;;;;39.53;29.02;;;;;;;15.16;100.00;101568.34;5074197;28;20028;-36
2023/05/11 10:49:23;;;;;;;37.15;27.38;;;;;;;15.11;100.00;101561.97;5064909;28;20040;-36
2023/05/11 10:52:01;;;;;;;35.42;25.58;;;;;;;15.17;100.00;101561.81;5073664;28;20082;-36
2023/05/11 10:54:59;;;;;;;36.65;26.88;;;;;;;15.35;100.00;101554.53;5073564;28;20032;-36
2023/05/11 10:57:36;;;;;;;31.63;24.90;;;;;;;15.40;100.00;101560.06;5061171;28;20044;-36
2023/05/11 11:00:15;;;;;;;32.58;24.10;;;;;;;15.59;100.00;101558.75;5073669;28;20506;-36
2023/05/11 11:02:41;;;;;;;29.17;22.80;;;;;;;15.70;100.00;101555.16;5073726;28;20036;-36
2023/05/11 11:05:08;;;;;;;29.00;21.67;;;;;;;15.75;100.00;101537.22;5073444;28;20364;-36
2023/05/11 11:08:02;;;;;;;26.08;22.13;;;;;;;15.98;100.00;101553.41;5073803;28;20025;-36